sensor_id;sensor_type;location;lat;lon;timestamp;pressure;altitude;pressure_sealevel;temperature;humidity
62333;BME280;48624;49.812;8.562;2023-03-03T00:00:40;100948.22;;;1.51;57.78
62333;BME280;48624;49.812;8.562;2023-03-03T00:03:06;100949.50;;;1.33;58.94
62333;BME280;48624;49.812;8.562;2023-03-03T00:05:33;100958.97;;;1.37;58.48
62333;BME280;48624;49.812;8.562;2023-03-03T00:07:59;100953.78;;;1.35;58.44
62333;BME280;48624;49.812;8.562;2023-03-03T00:10:24;100953.06;;;1.29;60.00
62333;BME280;48624;49.812;8.562;2023-03-03T00:12:50;100953.06;;;1.27;59.95
62333;BME280;48624;49.812;8.562;2023-03-03T00:15:18;100957.97;;;1.43;58.42
62333;BME280;48624;49.812;8.562;2023-03-03T00:17:44;100953.53;;;1.05;62.11
62333;BME280;48624;49.812;8.562;2023-03-03T00:20:35;100956.03;;;1.12;62.16
62333;BME280;48624;49.812;8.562;2023-03-03T00:23:23;100949.72;;;1.22;60.38
62333;BME280;48624;49.812;8.562;2023-03-03T00:25:52;100959.44;;;1.15;60.29
62333;BME280;48624;49.812;8.562;2023-03-03T00:28:30;100963.13;;;1.05;62.89
62333;BME280;48624;49.812;8.562;2023-03-03T00:31:00;100962.84;;;1.19;61.41
62333;BME280;48624;49.812;8.562;2023-03-03T00:33:31;100966.47;;;1.10;60.28
62333;BME280;48624;49.812;8.562;2023-03-03T00:38:42;100978.06;;;0.96;62.73
62333;BME280;48624;49.812;8.562;2023-03-03T00:41:15;100990.94;;;1.04;61.28
62333;BME280;48624;49.812;8.562;2023-03-03T00:43:43;100988.97;;;1.17;59.70
62333;BME280;48624;49.812;8.562;2023-03-03T00:46:09;100987.16;;;0.75;64.69
62333;BME280;48624;49.812;8.562;2023-03-03T00:51:01;100997.81;;;1.08;61.24
62333;BME280;48624;49.812;8.562;2023-03-03T00:53:32;100990.25;;;0.96;62.16
62333;BME280;48624;49.812;8.562;2023-03-03T00:55:57;100992.03;;;0.94;63.12
62333;BME280;48624;49.812;8.562;2023-03-03T00:58:24;101002.00;;;1.19;61.03
62333;BME280;48624;49.812;8.562;2023-03-03T01:00:51;101003.28;;;0.96;63.90
62333;BME280;48624;49.812;8.562;2023-03-03T01:03:19;101004.69;;;0.65;65.95
62333;BME280;48624;49.812;8.562;2023-03-03T01:05:46;101002.00;;;0.70;65.61
62333;BME280;48624;49.812;8.562;2023-03-03T01:08:12;101002.94;;;0.67;65.99
62333;BME280;48624;49.812;8.562;2023-03-03T01:10:49;100994.34;;;0.61;66.76
62333;BME280;48624;49.812;8.562;2023-03-03T01:13:23;100998.63;;;0.66;66.19
62333;BME280;48624;49.812;8.562;2023-03-03T01:15:50;100995.13;;;0.66;66.61
62333;BME280;48624;49.812;8.562;2023-03-03T01:18:16;100991.81;;;0.58;67.14
62333;BME280;48624;49.812;8.562;2023-03-03T01:20:41;100989.91;;;0.66;66.55
62333;BME280;48624;49.812;8.562;2023-03-03T01:23:07;100982.81;;;0.74;65.92
62333;BME280;48624;49.812;8.562;2023-03-03T01:25:32;100986.00;;;0.90;64.59
62333;BME280;48624;49.812;8.562;2023-03-03T01:27:58;100977.22;;;0.94;65.06
62333;BME280;48624;49.812;8.562;2023-03-03T01:30:23;100972.56;;;0.63;67.02
62333;BME280;48624;49.812;8.562;2023-03-03T01:32:49;100984.78;;;0.61;67.65
62333;BME280;48624;49.812;8.562;2023-03-03T01:35:14;100978.44;;;0.76;65.84
62333;BME280;48624;49.812;8.562;2023-03-03T01:37:40;100976.88;;;0.67;67.46
62333;BME280;48624;49.812;8.562;2023-03-03T01:40:13;100975.03;;;0.71;66.78
62333;BME280;48624;49.812;8.562;2023-03-03T01:42:39;100974.22;;;0.69;67.09
62333;BME280;48624;49.812;8.562;2023-03-03T01:45:15;100967.13;;;0.76;66.91
62333;BME280;48624;49.812;8.562;2023-03-03T01:47:49;100974.94;;;0.77;66.61
62333;BME280;48624;49.812;8.562;2023-03-03T01:50:27;100975.09;;;0.69;67.14
62333;BME280;48624;49.812;8.562;2023-03-03T01:52:54;100974.09;;;0.75;66.97
62333;BME280;48624;49.812;8.562;2023-03-03T01:55:22;100979.50;;;0.64;67.61
62333;BME280;48624;49.812;8.562;2023-03-03T01:57:56;100983.06;;;0.60;68.14
62333;BME280;48624;49.812;8.562;2023-03-03T02:00:24;100978.81;;;0.54;68.98
62333;BME280;48624;49.812;8.562;2023-03-03T02:02:50;100972.63;;;0.62;67.72
62333;BME280;48624;49.812;8.562;2023-03-03T02:05:17;100974.41;;;0.58;67.60
62333;BME280;48624;49.812;8.562;2023-03-03T02:07:42;100968.34;;;0.58;67.01
62333;BME280;48624;49.812;8.562;2023-03-03T02:10:12;100974.53;;;0.50;68.46
62333;BME280;48624;49.812;8.562;2023-03-03T02:15:26;100965.00;;;0.49;67.49
62333;BME280;48624;49.812;8.562;2023-03-03T02:17:57;100966.28;;;0.23;70.81
62333;BME280;48624;49.812;8.562;2023-03-03T02:22:56;100966.34;;;0.22;69.73
62333;BME280;48624;49.812;8.562;2023-03-03T02:25:40;100974.25;;;0.17;70.36
62333;BME280;48624;49.812;8.562;2023-03-03T02:28:08;100968.22;;;0.13;70.87
62333;BME280;48624;49.812;8.562;2023-03-03T02:30:37;100960.25;;;0.21;69.36
62333;BME280;48624;49.812;8.562;2023-03-03T02:33:03;100960.16;;;0.27;68.09
62333;BME280;48624;49.812;8.562;2023-03-03T02:35:30;100967.16;;;0.24;69.33
62333;BME280;48624;49.812;8.562;2023-03-03T02:40:36;100964.78;;;0.11;71.37
62333;BME280;48624;49.812;8.562;2023-03-03T02:43:05;100970.72;;;0.20;69.91
62333;BME280;48624;49.812;8.562;2023-03-03T02:45:31;100969.16;;;0.08;71.71
62333;BME280;48624;49.812;8.562;2023-03-03T02:47:56;100963.84;;;0.14;70.44
62333;BME280;48624;49.812;8.562;2023-03-03T02:50:21;100958.81;;;0.03;72.80
62333;BME280;48624;49.812;8.562;2023-03-03T02:52:47;100970.13;;;0.02;72.42
62333;BME280;48624;49.812;8.562;2023-03-03T02:55:12;100955.47;;;-0.05;73.29
62333;BME280;48624;49.812;8.562;2023-03-03T02:57:38;100956.34;;;-0.06;72.50
62333;BME280;48624;49.812;8.562;2023-03-03T03:00:05;100966.78;;;-0.08;72.77
62333;BME280;48624;49.812;8.562;2023-03-03T03:02:30;100971.25;;;-0.16;73.24
62333;BME280;48624;49.812;8.562;2023-03-03T03:04:56;100959.16;;;-0.19;73.36
62333;BME280;48624;49.812;8.562;2023-03-03T03:07:21;100964.31;;;-0.17;72.81
62333;BME280;48624;49.812;8.562;2023-03-03T03:09:46;100968.44;;;-0.02;72.58
62333;BME280;48624;49.812;8.562;2023-03-03T03:12:11;100965.34;;;-0.28;76.13
62333;BME280;48624;49.812;8.562;2023-03-03T03:14:37;100972.06;;;-0.12;74.91
62333;BME280;48624;49.812;8.562;2023-03-03T03:17:02;100972.97;;;-0.13;74.58
62333;BME280;48624;49.812;8.562;2023-03-03T03:19:28;100975.69;;;-0.23;75.05
62333;BME280;48624;49.812;8.562;2023-03-03T03:21:54;100970.75;;;-0.42;76.78
62333;BME280;48624;49.812;8.562;2023-03-03T03:24:19;100974.91;;;-0.28;76.19
62333;BME280;48624;49.812;8.562;2023-03-03T03:26:44;100971.44;;;-0.29;76.38
62333;BME280;48624;49.812;8.562;2023-03-03T03:29:10;100972.47;;;-0.40;78.41
62333;BME280;48624;49.812;8.562;2023-03-03T03:31:35;100970.63;;;-0.31;77.27
62333;BME280;48624;49.812;8.562;2023-03-03T03:34:00;100965.44;;;-0.34;77.35
62333;BME280;48624;49.812;8.562;2023-03-03T03:36:26;100966.38;;;-0.38;77.99
62333;BME280;48624;49.812;8.562;2023-03-03T03:38:54;100972.75;;;-0.61;79.68
62333;BME280;48624;49.812;8.562;2023-03-03T03:41:19;100967.56;;;-0.61;80.58
62333;BME280;48624;49.812;8.562;2023-03-03T03:43:44;100975.06;;;-0.37;78.12
62333;BME280;48624;49.812;8.562;2023-03-03T03:46:10;100973.34;;;-0.42;78.94
62333;BME280;48624;49.812;8.562;2023-03-03T03:48:35;100967.25;;;-0.37;78.43
62333;BME280;48624;49.812;8.562;2023-03-03T03:51:01;100970.63;;;-0.34;77.38
62333;BME280;48624;49.812;8.562;2023-03-03T03:53:26;100972.38;;;-0.33;77.08
62333;BME280;48624;49.812;8.562;2023-03-03T03:55:52;100977.59;;;-0.36;77.91
62333;BME280;48624;49.812;8.562;2023-03-03T03:58:18;100985.91;;;-0.72;81.33
62333;BME280;48624;49.812;8.562;2023-03-03T04:00:44;100983.50;;;-0.92;82.67
62333;BME280;48624;49.812;8.562;2023-03-03T04:03:11;100978.88;;;-0.65;80.00
62333;BME280;48624;49.812;8.562;2023-03-03T04:05:38;100980.69;;;-0.73;80.67
62333;BME280;48624;49.812;8.562;2023-03-03T04:08:04;100975.13;;;-0.45;77.99
62333;BME280;48624;49.812;8.562;2023-03-03T04:10:29;100978.13;;;-0.75;81.19
62333;BME280;48624;49.812;8.562;2023-03-03T04:12:55;100977.97;;;-1.39;83.83
62333;BME280;48624;49.812;8.562;2023-03-03T04:15:20;100980.59;;;-1.45;84.51
62333;BME280;48624;49.812;8.562;2023-03-03T04:17:45;100991.16;;;-1.61;85.21
62333;BME280;48624;49.812;8.562;2023-03-03T04:20:13;100994.75;;;-1.81;86.92
62333;BME280;48624;49.812;8.562;2023-03-03T04:22:39;100989.56;;;-1.79;87.03
62333;BME280;48624;49.812;8.562;2023-03-03T04:25:05;100983.31;;;-1.56;87.10
62333;BME280;48624;49.812;8.562;2023-03-03T04:27:31;100980.59;;;-1.45;86.50
62333;BME280;48624;49.812;8.562;2023-03-03T04:29:57;100994.34;;;-1.32;86.32
62333;BME280;48624;49.812;8.562;2023-03-03T04:32:23;100994.41;;;-1.37;86.68
62333;BME280;48624;49.812;8.562;2023-03-03T04:34:48;100993.31;;;-1.16;85.67
62333;BME280;48624;49.812;8.562;2023-03-03T04:37:13;100986.69;;;-1.46;87.06
62333;BME280;48624;49.812;8.562;2023-03-03T04:39:38;100992.81;;;-1.54;87.77
62333;BME280;48624;49.812;8.562;2023-03-03T04:42:04;100996.19;;;-1.42;87.17
62333;BME280;48624;49.812;8.562;2023-03-03T04:44:29;100998.13;;;-1.64;88.80
62333;BME280;48624;49.812;8.562;2023-03-03T04:46:54;101011.16;;;-1.72;89.38
62333;BME280;48624;49.812;8.562;2023-03-03T04:49:19;101005.81;;;-1.54;88.64
62333;BME280;48624;49.812;8.562;2023-03-03T04:51:45;101006.75;;;-1.64;90.13
62333;BME280;48624;49.812;8.562;2023-03-03T04:54:10;101017.75;;;-1.34;89.09
62333;BME280;48624;49.812;8.562;2023-03-03T04:56:35;101008.31;;;-1.41;90.23
62333;BME280;48624;49.812;8.562;2023-03-03T04:59:01;101015.06;;;-1.23;88.71
62333;BME280;48624;49.812;8.562;2023-03-03T05:01:26;101015.81;;;-1.10;89.10
62333;BME280;48624;49.812;8.562;2023-03-03T05:03:52;101020.22;;;-1.20;90.63
62333;BME280;48624;49.812;8.562;2023-03-03T05:06:17;101030.47;;;-1.06;89.86
62333;BME280;48624;49.812;8.562;2023-03-03T05:08:43;101028.75;;;-1.04;90.36
62333;BME280;48624;49.812;8.562;2023-03-03T05:11:09;101034.44;;;-0.71;86.70
62333;BME280;48624;49.812;8.562;2023-03-03T05:13:35;101035.72;;;-1.07;90.03
62333;BME280;48624;49.812;8.562;2023-03-03T05:16:00;101023.50;;;-0.99;90.13
62333;BME280;48624;49.812;8.562;2023-03-03T05:18:26;101014.72;;;-0.92;89.10
62333;BME280;48624;49.812;8.562;2023-03-03T05:20:52;101012.84;;;-0.76;86.71
62333;BME280;48624;49.812;8.562;2023-03-03T05:23:18;101017.28;;;-0.84;88.72
62333;BME280;48624;49.812;8.562;2023-03-03T05:25:46;101023.16;;;-0.68;88.12
62333;BME280;48624;49.812;8.562;2023-03-03T05:28:12;101019.78;;;-0.76;89.92
62333;BME280;48624;49.812;8.562;2023-03-03T05:30:37;101017.00;;;-0.61;88.28
62333;BME280;48624;49.812;8.562;2023-03-03T05:33:04;101004.00;;;-0.64;89.30
62333;BME280;48624;49.812;8.562;2023-03-03T05:35:29;101011.69;;;-0.53;90.46
62333;BME280;48624;49.812;8.562;2023-03-03T05:37:55;101015.19;;;-0.54;91.52
62333;BME280;48624;49.812;8.562;2023-03-03T05:40:23;101010.75;;;-0.47;90.31
62333;BME280;48624;49.812;8.562;2023-03-03T05:42:48;101012.34;;;-0.35;87.88
62333;BME280;48624;49.812;8.562;2023-03-03T05:45:13;101015.91;;;-0.43;90.23
62333;BME280;48624;49.812;8.562;2023-03-03T05:47:39;101018.38;;;-0.35;88.12
62333;BME280;48624;49.812;8.562;2023-03-03T05:50:06;101026.19;;;-0.35;89.36
62333;BME280;48624;49.812;8.562;2023-03-03T05:52:31;101030.69;;;-0.45;88.81
62333;BME280;48624;49.812;8.562;2023-03-03T05:54:57;101023.06;;;-0.60;89.34
62333;BME280;48624;49.812;8.562;2023-03-03T05:57:22;101036.00;;;-0.57;89.72
62333;BME280;48624;49.812;8.562;2023-03-03T05:59:49;101039.13;;;-1.02;93.57
62333;BME280;48624;49.812;8.562;2023-03-03T06:02:14;101045.25;;;-1.08;93.42
62333;BME280;48624;49.812;8.562;2023-03-03T06:04:40;101039.91;;;-0.94;93.59
62333;BME280;48624;49.812;8.562;2023-03-03T06:07:05;101047.09;;;-1.21;94.52
62333;BME280;48624;49.812;8.562;2023-03-03T06:09:31;101060.53;;;-0.77;92.37
62333;BME280;48624;49.812;8.562;2023-03-03T06:11:56;101059.56;;;-0.66;91.04
62333;BME280;48624;49.812;8.562;2023-03-03T06:14:22;101057.06;;;-0.76;91.40
62333;BME280;48624;49.812;8.562;2023-03-03T06:16:47;101059.75;;;-0.84;92.85
62333;BME280;48624;49.812;8.562;2023-03-03T06:19:13;101062.28;;;-0.77;92.29
62333;BME280;48624;49.812;8.562;2023-03-03T06:21:39;101073.63;;;-0.85;92.59
62333;BME280;48624;49.812;8.562;2023-03-03T06:24:05;101073.56;;;-0.78;93.38
62333;BME280;48624;49.812;8.562;2023-03-03T06:26:31;101080.56;;;-0.84;93.81
62333;BME280;48624;49.812;8.562;2023-03-03T06:28:57;101082.03;;;-0.59;92.03
62333;BME280;48624;49.812;8.562;2023-03-03T06:31:24;101075.25;;;-0.73;93.52
62333;BME280;48624;49.812;8.562;2023-03-03T06:33:50;101088.25;;;-0.74;94.10
62333;BME280;48624;49.812;8.562;2023-03-03T06:36:19;101084.66;;;-0.61;94.07
62333;BME280;48624;49.812;8.562;2023-03-03T06:38:45;101088.84;;;-0.47;92.83
62333;BME280;48624;49.812;8.562;2023-03-03T06:41:11;101092.81;;;-0.93;94.59
62333;BME280;48624;49.812;8.562;2023-03-03T06:43:36;101099.66;;;-0.86;93.52
62333;BME280;48624;49.812;8.562;2023-03-03T06:46:04;101090.28;;;-1.03;95.30
62333;BME280;48624;49.812;8.562;2023-03-03T06:48:31;101092.53;;;-0.68;94.12
62333;BME280;48624;49.812;8.562;2023-03-03T06:51:01;101094.31;;;-0.72;94.32
62333;BME280;48624;49.812;8.562;2023-03-03T06:53:27;101102.72;;;-0.47;92.50
62333;BME280;48624;49.812;8.562;2023-03-03T06:55:57;101103.03;;;-0.76;94.33
62333;BME280;48624;49.812;8.562;2023-03-03T06:58:23;101113.72;;;-0.24;91.45
62333;BME280;48624;49.812;8.562;2023-03-03T07:00:59;101120.63;;;-0.19;91.76
62333;BME280;48624;49.812;8.562;2023-03-03T07:03:33;101117.03;;;-0.10;91.10
62333;BME280;48624;49.812;8.562;2023-03-03T07:05:59;101119.81;;;-0.22;92.25
62333;BME280;48624;49.812;8.562;2023-03-03T07:08:24;101122.53;;;-0.32;92.44
62333;BME280;48624;49.812;8.562;2023-03-03T07:10:51;101125.69;;;-0.08;91.29
62333;BME280;48624;49.812;8.562;2023-03-03T07:13:25;101124.69;;;0.03;92.61
62333;BME280;48624;49.812;8.562;2023-03-03T07:15:53;101133.00;;;0.31;90.75
62333;BME280;48624;49.812;8.562;2023-03-03T07:20:57;101143.91;;;-0.05;93.16
62333;BME280;48624;49.812;8.562;2023-03-03T07:23:25;101159.03;;;0.33;91.04
62333;BME280;48624;49.812;8.562;2023-03-03T07:25:52;101152.31;;;0.16;91.64
62333;BME280;48624;49.812;8.562;2023-03-03T07:28:25;101151.25;;;0.30;91.35
62333;BME280;48624;49.812;8.562;2023-03-03T07:30:56;101160.53;;;0.51;90.20
62333;BME280;48624;49.812;8.562;2023-03-03T07:33:40;101164.78;;;0.57;89.82
62333;BME280;48624;49.812;8.562;2023-03-03T07:36:21;101163.63;;;0.75;88.01
62333;BME280;48624;49.812;8.562;2023-03-03T07:38:53;101174.13;;;0.72;89.85
62333;BME280;48624;49.812;8.562;2023-03-03T07:41:20;101183.22;;;0.44;91.28
62333;BME280;48624;49.812;8.562;2023-03-03T07:43:52;101181.44;;;0.46;91.28
62333;BME280;48624;49.812;8.562;2023-03-03T07:46:42;101188.00;;;0.09;91.98
62333;BME280;48624;49.812;8.562;2023-03-03T07:49:20;101193.94;;;0.83;89.77
62333;BME280;48624;49.812;8.562;2023-03-03T07:51:46;101194.84;;;0.81;90.22
62333;BME280;48624;49.812;8.562;2023-03-03T07:54:28;101196.72;;;0.71;90.72
62333;BME280;48624;49.812;8.562;2023-03-03T07:57:24;101196.97;;;1.12;89.10
62333;BME280;48624;49.812;8.562;2023-03-03T07:59:54;101198.16;;;0.92;90.08
62333;BME280;48624;49.812;8.562;2023-03-03T08:04:52;101202.91;;;1.22;88.73
62333;BME280;48624;49.812;8.562;2023-03-03T08:07:21;101204.72;;;1.69;87.07
62333;BME280;48624;49.812;8.562;2023-03-03T08:12:19;101211.00;;;1.57;87.68
62333;BME280;48624;49.812;8.562;2023-03-03T08:14:50;101212.16;;;1.89;87.10
62333;BME280;48624;49.812;8.562;2023-03-03T08:17:21;101221.13;;;1.75;84.71
62333;BME280;48624;49.812;8.562;2023-03-03T08:19:50;101212.91;;;1.47;86.48
62333;BME280;48624;49.812;8.562;2023-03-03T08:22:18;101208.88;;;1.79;84.74
62333;BME280;48624;49.812;8.562;2023-03-03T08:24:45;101218.00;;;2.02;84.41
62333;BME280;48624;49.812;8.562;2023-03-03T08:27:10;101222.69;;;1.84;84.49
62333;BME280;48624;49.812;8.562;2023-03-03T08:29:36;101234.22;;;1.74;85.37
62333;BME280;48624;49.812;8.562;2023-03-03T08:32:01;101224.31;;;1.91;84.37
62333;BME280;48624;49.812;8.562;2023-03-03T08:34:26;101223.22;;;2.03;85.60
62333;BME280;48624;49.812;8.562;2023-03-03T08:36:52;101217.25;;;1.97;84.79
62333;BME280;48624;49.812;8.562;2023-03-03T08:39:17;101234.03;;;2.27;83.24
62333;BME280;48624;49.812;8.562;2023-03-03T08:41:42;101221.78;;;1.87;84.29
62333;BME280;48624;49.812;8.562;2023-03-03T08:44:09;101220.25;;;2.20;84.54
62333;BME280;48624;49.812;8.562;2023-03-03T08:46:35;101224.69;;;2.59;80.93
62333;BME280;48624;49.812;8.562;2023-03-03T08:49:01;101213.38;;;2.57;82.29
62333;BME280;48624;49.812;8.562;2023-03-03T08:51:27;101229.78;;;2.66;82.37
62333;BME280;48624;49.812;8.562;2023-03-03T08:53:52;101222.59;;;3.12;79.88
62333;BME280;48624;49.812;8.562;2023-03-03T08:56:17;101223.91;;;2.54;80.58
62333;BME280;48624;49.812;8.562;2023-03-03T08:58:43;101222.66;;;2.72;80.09
62333;BME280;48624;49.812;8.562;2023-03-03T09:01:15;101217.56;;;3.04;79.94
62333;BME280;48624;49.812;8.562;2023-03-03T09:03:43;101213.72;;;3.17;79.09
62333;BME280;48624;49.812;8.562;2023-03-03T09:06:09;101213.66;;;3.21;77.77
62333;BME280;48624;49.812;8.562;2023-03-03T09:08:35;101216.00;;;3.31;78.27
62333;BME280;48624;49.812;8.562;2023-03-03T09:11:01;101213.81;;;3.49;77.07
62333;BME280;48624;49.812;8.562;2023-03-03T09:13:28;101224.72;;;3.67;76.56
62333;BME280;48624;49.812;8.562;2023-03-03T09:15:55;101223.13;;;3.61;76.14
62333;BME280;48624;49.812;8.562;2023-03-03T09:18:31;101221.38;;;3.25;78.25
62333;BME280;48624;49.812;8.562;2023-03-03T09:20:59;101225.63;;;3.66;77.37
62333;BME280;48624;49.812;8.562;2023-03-03T09:23:37;101225.63;;;3.97;75.90
62333;BME280;48624;49.812;8.562;2023-03-03T09:31:48;101231.03;;;3.59;76.09
62333;BME280;48624;49.812;8.562;2023-03-03T09:34:19;101228.19;;;3.67;75.09
62333;BME280;48624;49.812;8.562;2023-03-03T09:36:48;101234.00;;;3.45;76.19
62333;BME280;48624;49.812;8.562;2023-03-03T09:39:24;101234.66;;;3.87;74.95
62333;BME280;48624;49.812;8.562;2023-03-03T09:42:15;101228.25;;;3.97;74.05
62333;BME280;48624;49.812;8.562;2023-03-03T09:44:56;101227.66;;;4.19;74.16
62333;BME280;48624;49.812;8.562;2023-03-03T10:06:26;101238.06;;;4.52;71.19
62333;BME280;48624;49.812;8.562;2023-03-03T10:09:15;101243.41;;;4.49;71.76
62333;BME280;48624;49.812;8.562;2023-03-03T10:11:54;101245.22;;;4.47;70.91
62333;BME280;48624;49.812;8.562;2023-03-03T10:33:11;101235.34;;;5.39;67.94
62333;BME280;48624;49.812;8.562;2023-03-03T10:38:30;101240.78;;;5.86;65.89
62333;BME280;48624;49.812;8.562;2023-03-03T10:41:16;101246.50;;;6.22;64.61
62333;BME280;48624;49.812;8.562;2023-03-03T10:49:41;101245.88;;;6.39;63.23
62333;BME280;48624;49.812;8.562;2023-03-03T10:52:16;101245.91;;;6.86;63.09
62333;BME280;48624;49.812;8.562;2023-03-03T11:00:48;101245.47;;;6.03;66.22
62333;BME280;48624;49.812;8.562;2023-03-03T11:08:45;101242.00;;;6.72;65.06
62333;BME280;48624;49.812;8.562;2023-03-03T11:14:12;101254.34;;;6.94;62.89
62333;BME280;48624;49.812;8.562;2023-03-03T11:22:56;101249.88;;;6.74;63.46
62333;BME280;48624;49.812;8.562;2023-03-03T11:25:40;101242.53;;;7.04;63.43
62333;BME280;48624;49.812;8.562;2023-03-03T11:28:21;101238.41;;;6.97;62.80
62333;BME280;48624;49.812;8.562;2023-03-03T11:38:59;101226.03;;;9.18;56.24
62333;BME280;48624;49.812;8.562;2023-03-03T11:41:36;101215.16;;;8.11;58.80
62333;BME280;48624;49.812;8.562;2023-03-03T11:44:19;101216.88;;;7.72;60.06
62333;BME280;48624;49.812;8.562;2023-03-03T11:46:54;101219.88;;;8.04;59.14
62333;BME280;48624;49.812;8.562;2023-03-03T11:49:44;101198.56;;;9.03;55.39
62333;BME280;48624;49.812;8.562;2023-03-03T11:52:38;101204.91;;;8.24;58.01
62333;BME280;48624;49.812;8.562;2023-03-03T11:55:20;101206.91;;;8.18;58.19
62333;BME280;48624;49.812;8.562;2023-03-03T11:58:12;101200.91;;;8.72;56.41
62333;BME280;48624;49.812;8.562;2023-03-03T12:11:47;101193.91;;;7.95;57.24
62333;BME280;48624;49.812;8.562;2023-03-03T12:17:14;101173.84;;;9.04;55.12
62333;BME280;48624;49.812;8.562;2023-03-03T12:22:33;101180.97;;;8.84;54.00
62333;BME280;48624;49.812;8.562;2023-03-03T12:28:24;101167.88;;;9.18;53.05
62333;BME280;48624;49.812;8.562;2023-03-03T12:31:15;101168.16;;;9.47;51.65
62333;BME280;48624;49.812;8.562;2023-03-03T12:36:49;101168.16;;;9.65;51.48
62333;BME280;48624;49.812;8.562;2023-03-03T12:39:43;101160.56;;;10.40;49.43
62333;BME280;48624;49.812;8.562;2023-03-03T12:45:10;101147.28;;;8.90;52.04
62333;BME280;48624;49.812;8.562;2023-03-03T12:47:59;101149.78;;;9.95;50.06
62333;BME280;48624;49.812;8.562;2023-03-03T12:56:00;101134.09;;;10.57;49.03
62333;BME280;48624;49.812;8.562;2023-03-03T13:12:32;101117.25;;;10.74;47.24
62333;BME280;48624;49.812;8.562;2023-03-03T13:15:24;101117.97;;;11.51;46.74
62333;BME280;48624;49.812;8.562;2023-03-03T13:18:06;101126.59;;;11.55;45.80
62333;BME280;48624;49.812;8.562;2023-03-03T13:20:48;101118.91;;;11.50;45.23
62333;BME280;48624;49.812;8.562;2023-03-03T13:23:35;101117.88;;;12.11;44.13
62333;BME280;48624;49.812;8.562;2023-03-03T13:26:10;101116.06;;;10.63;47.31
62333;BME280;48624;49.812;8.562;2023-03-03T13:31:20;101114.28;;;11.09;46.58
62333;BME280;48624;49.812;8.562;2023-03-03T13:33:58;101113.25;;;10.97;46.54
62333;BME280;48624;49.812;8.562;2023-03-03T13:37:03;101110.75;;;11.54;46.75
62333;BME280;48624;49.812;8.562;2023-03-03T13:39:28;101112.94;;;11.47;46.39
62333;BME280;48624;49.812;8.562;2023-03-03T13:44:53;101108.66;;;12.44;44.29
62333;BME280;48624;49.812;8.562;2023-03-03T13:47:41;101103.72;;;11.96;44.08
62333;BME280;48624;49.812;8.562;2023-03-03T13:50:18;101101.94;;;12.11;44.19
62333;BME280;48624;49.812;8.562;2023-03-03T13:56:11;101095.22;;;10.88;45.67
62333;BME280;48624;49.812;8.562;2023-03-03T13:59:04;101087.91;;;10.77;46.27
62333;BME280;48624;49.812;8.562;2023-03-03T14:07:02;101082.97;;;11.30;44.90
62333;BME280;48624;49.812;8.562;2023-03-03T14:09:50;101084.00;;;11.28;45.35
62333;BME280;48624;49.812;8.562;2023-03-03T14:15:18;101073.50;;;11.41;44.94
62333;BME280;48624;49.812;8.562;2023-03-03T14:20:43;101075.00;;;12.03;44.27
62333;BME280;48624;49.812;8.562;2023-03-03T14:23:21;101077.03;;;11.41;45.37
62333;BME280;48624;49.812;8.562;2023-03-03T14:26:23;101071.53;;;11.44;44.93
62333;BME280;48624;49.812;8.562;2023-03-03T14:28:44;101069.00;;;11.99;43.33
62333;BME280;48624;49.812;8.562;2023-03-03T14:31:17;101064.97;;;12.21;44.03
62333;BME280;48624;49.812;8.562;2023-03-03T14:33:56;101069.81;;;11.72;44.50
62333;BME280;48624;49.812;8.562;2023-03-03T14:36:29;101070.63;;;12.02;43.08
62333;BME280;48624;49.812;8.562;2023-03-03T14:38:55;101069.09;;;12.80;42.32
62333;BME280;48624;49.812;8.562;2023-03-03T14:41:22;101065.38;;;11.29;44.75
62333;BME280;48624;49.812;8.562;2023-03-03T14:49:35;101073.31;;;13.10;41.28
62333;BME280;48624;49.812;8.562;2023-03-03T14:52:17;101072.94;;;12.89;41.15
62333;BME280;48624;49.812;8.562;2023-03-03T14:54:46;101069.34;;;12.22;41.31
62333;BME280;48624;49.812;8.562;2023-03-03T14:57:41;101073.66;;;12.38;41.12
62333;BME280;48624;49.812;8.562;2023-03-03T15:02:41;101074.94;;;11.46;41.77
62333;BME280;48624;49.812;8.562;2023-03-03T15:07:54;101071.00;;;12.10;40.28
62333;BME280;48624;49.812;8.562;2023-03-03T15:13:25;101075.59;;;11.64;41.02
62333;BME280;48624;49.812;8.562;2023-03-03T15:18:26;101074.84;;;12.46;40.49
62333;BME280;48624;49.812;8.562;2023-03-03T15:21:02;101080.63;;;13.07;39.43
62333;BME280;48624;49.812;8.562;2023-03-03T15:29:03;101076.81;;;12.57;40.17
62333;BME280;48624;49.812;8.562;2023-03-03T15:34:43;101074.25;;;13.35;38.92
62333;BME280;48624;49.812;8.562;2023-03-03T15:42:48;101077.47;;;12.61;40.70
62333;BME280;48624;49.812;8.562;2023-03-03T15:48:30;101074.41;;;12.67;39.77
62333;BME280;48624;49.812;8.562;2023-03-03T15:56:32;101083.66;;;11.63;42.28
62333;BME280;48624;49.812;8.562;2023-03-03T16:02:19;101075.75;;;12.05;41.45
62333;BME280;48624;49.812;8.562;2023-03-03T16:10:33;101085.72;;;11.72;41.80
62333;BME280;48624;49.812;8.562;2023-03-03T16:21:43;101069.56;;;10.88;43.19
62333;BME280;48624;49.812;8.562;2023-03-03T16:27:31;101079.00;;;10.15;43.87
62333;BME280;48624;49.812;8.562;2023-03-03T16:30:25;101088.19;;;9.76;44.50
62333;BME280;48624;49.812;8.562;2023-03-03T16:33:15;101090.50;;;9.14;46.62
62333;BME280;48624;49.812;8.562;2023-03-03T16:38:31;101099.38;;;8.96;46.98
62333;BME280;48624;49.812;8.562;2023-03-03T16:41:00;101093.47;;;8.91;46.76
62333;BME280;48624;49.812;8.562;2023-03-03T16:45:58;101097.53;;;8.24;48.86
62333;BME280;48624;49.812;8.562;2023-03-03T16:48:52;101100.47;;;8.37;48.48
62333;BME280;48624;49.812;8.562;2023-03-03T16:54:15;101107.25;;;7.85;50.08
62333;BME280;48624;49.812;8.562;2023-03-03T16:56:45;101108.19;;;7.84;49.84
62333;BME280;48624;49.812;8.562;2023-03-03T17:04:58;101117.50;;;7.32;51.54
62333;BME280;48624;49.812;8.562;2023-03-03T17:07:43;101117.31;;;7.16;51.73
62333;BME280;48624;49.812;8.562;2023-03-03T17:16:10;101119.16;;;6.71;52.98
62333;BME280;48624;49.812;8.562;2023-03-03T17:19:04;101134.78;;;6.53;53.55